createdAt,value
2023-03-12T00:02:25.155Z,97471.63
2023-03-12T00:05:28.880Z,97481.56
2023-03-12T00:08:31.488Z,97478.69
2023-03-12T00:11:34.142Z,97487.66
2023-03-12T00:14:37.088Z,97490.56
2023-03-12T00:17:39.707Z,97496.00
2023-03-12T00:20:42.234Z,97506.22
2023-03-12T00:23:48.180Z,97501.88
2023-03-12T00:26:50.749Z,97515.25
2023-03-12T00:29:53.831Z,97506.84
2023-03-12T00:32:56.495Z,97516.34
2023-03-12T00:36:00.570Z,97519.84
2023-03-12T00:39:03.457Z,97518.22
2023-03-12T00:42:06.166Z,97519.84
2023-03-12T00:45:09.275Z,97524.25
2023-03-12T00:48:11.990Z,97527.41
2023-03-12T00:51:14.884Z,97536.41
2023-03-12T00:54:17.606Z,97536.22
2023-03-12T00:57:20.496Z,97538.91
2023-03-12T01:00:24.133Z,97538.44
2023-03-12T01:03:26.800Z,97533.44
2023-03-12T01:06:29.424Z,97544.66
2023-03-12T01:09:35.291Z,97545.31
2023-03-12T01:12:37.935Z,97558.72
2023-03-12T01:15:40.527Z,97556.16
2023-03-12T01:18:43.101Z,97559.19
2023-03-12T01:21:45.676Z,97557.69
2023-03-12T01:24:48.660Z,97568.00
2023-03-12T01:27:51.345Z,97562.19
2023-03-12T01:30:54.092Z,97563.97
2023-03-12T01:33:59.488Z,97562.69
2023-03-12T01:37:02.620Z,97554.97
2023-03-12T01:40:06.106Z,97550.69
2023-03-12T01:43:31.701Z,97554.53
2023-03-12T01:46:37.041Z,97546.34
2023-03-12T01:49:45.728Z,97553.06
2023-03-12T01:52:48.797Z,97557.25
2023-03-12T01:55:51.703Z,97561.41
2023-03-12T01:58:56.739Z,97563.16
2023-03-12T02:01:59.882Z,97571.22
2023-03-12T02:05:15.139Z,97572.13
2023-03-12T02:08:18.351Z,97580.00
2023-03-12T02:11:21.116Z,97569.66
2023-03-12T02:14:23.888Z,97578.19
2023-03-12T02:17:26.777Z,97581.53
2023-03-12T02:20:40.384Z,97579.16
2023-03-12T02:23:52.070Z,97588.75
2023-03-12T02:26:54.870Z,97577.91
2023-03-12T02:29:57.642Z,97561.31
2023-03-12T02:33:03.497Z,97572.13
2023-03-12T02:36:06.382Z,97587.19
2023-03-12T02:39:11.464Z,97572.13
2023-03-12T02:42:14.729Z,97588.81
2023-03-12T02:45:17.978Z,97597.47
2023-03-12T02:48:21.234Z,97609.44
2023-03-12T02:51:23.800Z,97609.25
2023-03-12T02:54:26.735Z,97620.72
2023-03-12T02:57:29.809Z,97624.53
2023-03-12T03:00:32.731Z,97629.84
2023-03-12T03:03:35.728Z,97641.16
2023-03-12T03:06:40.413Z,97643.63
2023-03-12T03:09:43.042Z,97652.84
2023-03-12T03:12:45.915Z,97654.44
2023-03-12T03:15:48.868Z,97649.94
2023-03-12T03:18:51.621Z,97652.28
2023-03-12T03:21:54.213Z,97655.94
2023-03-12T03:24:56.840Z,97658.50
2023-03-12T03:27:59.309Z,97664.06
2023-03-12T03:31:02.419Z,97661.06
2023-03-12T03:34:08.750Z,97661.97
2023-03-12T03:37:11.441Z,97664.97
2023-03-12T03:40:14.620Z,97663.66
2023-03-12T03:43:17.261Z,97670.44
2023-03-12T03:46:20.863Z,97671.44
2023-03-12T03:49:29.221Z,97676.38
2023-03-12T03:52:32.446Z,97670.66
2023-03-12T03:55:39.947Z,97674.44
2023-03-12T03:58:43.860Z,97674.06
2023-03-12T04:01:46.817Z,97672.56
2023-03-12T04:04:50.017Z,97677.47
2023-03-12T04:07:53.864Z,97680.94
2023-03-12T04:10:59.205Z,97680.03
2023-03-12T04:14:02.023Z,97672.31
2023-03-12T04:17:08.330Z,97678.22
2023-03-12T04:20:11.908Z,97682.44
2023-03-12T04:23:16.700Z,97685.03
2023-03-12T04:26:19.389Z,97689.25
2023-03-12T04:29:21.997Z,97692.28
2023-03-12T04:32:24.748Z,97695.19
2023-03-12T04:35:28.346Z,97697.94
2023-03-12T04:38:31.980Z,97695.81
2023-03-12T04:41:35.961Z,97699.81
2023-03-12T04:44:52.876Z,97702.78
2023-03-12T04:47:56.191Z,97704.59
2023-03-12T04:50:58.950Z,97700.56
2023-03-12T04:54:01.657Z,97709.28
2023-03-12T04:57:04.504Z,97716.75
2023-03-12T05:00:11.308Z,97721.22
2023-03-12T05:03:14.722Z,97719.72
2023-03-12T05:06:17.893Z,97719.56
2023-03-12T05:09:20.700Z,97719.88
2023-03-12T05:12:23.902Z,97726.50
2023-03-12T05:15:27.134Z,97728.16
2023-03-12T05:18:30.075Z,97740.28
2023-03-12T05:21:33.491Z,97741.50
2023-03-12T05:24:36.086Z,97745.56
2023-03-12T05:27:38.829Z,97752.50
2023-03-12T05:30:41.571Z,97764.22
2023-03-12T05:33:44.830Z,97766.91
2023-03-12T05:36:47.677Z,97775.81
2023-03-12T05:39:55.439Z,97779.41
2023-03-12T05:42:58.171Z,97776.94
2023-03-12T05:46:04.200Z,97783.72
2023-03-12T05:49:08.973Z,97780.19
2023-03-12T05:52:12.295Z,97787.75
2023-03-12T05:55:15.404Z,97789.19
2023-03-12T05:58:19.342Z,97786.22
2023-03-12T06:01:25.076Z,97781.31
2023-03-12T06:04:30.115Z,97788.19
2023-03-12T06:07:32.717Z,97791.63
2023-03-12T06:10:38.214Z,97804.47
2023-03-12T06:13:41.619Z,97803.25
2023-03-12T06:16:44.405Z,97807.41
2023-03-12T06:19:51.806Z,97811.66
2023-03-12T06:22:56.287Z,97814.91
2023-03-12T06:26:00.100Z,97818.00
2023-03-12T06:29:03.264Z,97831.47
2023-03-12T06:32:06.156Z,97830.78
2023-03-12T06:35:09.268Z,97834.63
2023-03-12T06:38:12.238Z,97848.03
2023-03-12T06:41:17.332Z,97846.56
2023-03-12T06:44:20.082Z,97847.38
2023-03-12T06:47:23.045Z,97853.66
2023-03-12T06:50:25.858Z,97864.75
2023-03-12T06:53:28.544Z,97862.50
2023-03-12T06:56:32.625Z,97863.63
2023-03-12T06:59:35.490Z,97866.06
2023-03-12T07:02:38.271Z,97871.88
2023-03-12T07:05:44.804Z,97869.13
2023-03-12T07:08:48.043Z,97882.75
2023-03-12T07:11:50.724Z,97887.34
2023-03-12T07:14:53.660Z,97881.44
2023-03-12T07:18:00.698Z,97878.97
2023-03-12T07:21:04.518Z,97887.59
2023-03-12T07:24:08.708Z,97889.66
2023-03-12T07:27:11.391Z,97885.09
2023-03-12T07:30:14.190Z,97879.56
2023-03-12T07:33:19.261Z,97887.91
2023-03-12T07:36:22.048Z,97893.97
2023-03-12T07:39:27.004Z,97893.19
2023-03-12T07:42:30.019Z,97891.31
2023-03-12T07:45:33.086Z,97898.34
2023-03-12T07:48:35.719Z,97896.13
2023-03-12T07:51:38.632Z,97902.81
2023-03-12T07:54:41.561Z,97904.38
2023-03-12T07:57:44.605Z,97895.19
2023-03-12T08:00:47.152Z,97901.03
2023-03-12T08:03:50.116Z,97905.47
2023-03-12T08:06:52.983Z,97907.00
2023-03-12T08:09:55.984Z,97901.47
2023-03-12T08:12:58.904Z,97898.72
2023-03-12T08:16:02.003Z,97895.38
2023-03-12T08:19:05.106Z,97898.72
2023-03-12T08:22:07.927Z,97908.38
2023-03-12T08:25:11.298Z,97913.66
2023-03-12T08:28:14.687Z,97907.53
2023-03-12T08:31:17.450Z,97920.19
2023-03-12T08:34:20.219Z,97921.63
2023-03-12T08:37:23.563Z,97919.91
2023-03-12T08:40:26.449Z,97925.50
2023-03-12T08:43:29.656Z,97922.16
2023-03-12T08:46:32.578Z,97922.34
2023-03-12T08:49:35.300Z,97930.75
2023-03-12T08:52:37.945Z,97926.84
2023-03-12T08:55:40.837Z,97928.53
2023-03-12T08:58:43.654Z,97927.16
2023-03-12T09:01:46.768Z,97926.84
2023-03-12T09:04:50.821Z,97925.41
2023-03-12T09:07:53.973Z,97921.13
2023-03-12T09:10:56.615Z,97918.72
2023-03-12T09:14:42.412Z,97914.84
2023-03-12T09:17:23.404Z,97924.75
2023-03-12T09:20:26.367Z,97928.66
2023-03-12T09:23:29.627Z,97924.44
2023-03-12T09:26:34.182Z,97921.81
2023-03-12T09:29:46.509Z,97920.19
2023-03-12T09:32:56.492Z,97928.69
2023-03-12T09:35:59.697Z,97928.09
2023-03-12T09:39:09.134Z,97923.03
2023-03-12T09:42:46.283Z,97926.66
2023-03-12T09:45:50.961Z,97923.31
2023-03-12T09:48:57.758Z,97936.59
2023-03-12T09:52:02.648Z,97933.81
2023-03-12T09:55:17.421Z,97930.97
2023-03-12T09:58:27.487Z,97930.16
2023-03-12T10:01:39.070Z,97934.94
2023-03-12T10:04:58.879Z,97929.84
2023-03-12T10:08:34.794Z,97931.63
2023-03-12T10:11:59.340Z,97934.63
2023-03-12T10:15:32.748Z,97929.16
2023-03-12T10:18:58.598Z,97925.44
2023-03-12T10:22:14.752Z,97929.06
2023-03-12T10:25:32.376Z,97926.81
2023-03-12T10:28:42.181Z,97920.97
2023-03-12T10:32:10.089Z,97922.06
2023-03-12T10:35:31.999Z,97920.06
2023-03-12T10:38:35.000Z,97920.41
2023-03-12T10:41:37.856Z,97927.06
2023-03-12T10:44:40.750Z,97918.47
2023-03-12T10:47:45.034Z,97920.06
2023-03-12T10:51:20.369Z,97923.97
2023-03-12T10:54:37.968Z,97916.00
2023-03-12T10:57:42.461Z,97915.81
2023-03-12T11:00:57.154Z,97921.72
2023-03-12T11:04:19.171Z,97923.28
2023-03-12T11:07:28.251Z,97917.50
2023-03-12T11:10:44.041Z,97920.97
2023-03-12T11:13:46.849Z,97917.75
2023-03-12T11:16:51.008Z,97913.75
2023-03-12T11:19:54.929Z,97913.06
2023-03-12T11:22:57.945Z,97916.34
2023-03-12T11:26:04.770Z,97901.00
2023-03-12T11:29:18.946Z,97906.06
2023-03-12T11:32:31.873Z,97898.81
2023-03-12T11:35:47.801Z,97900.63
2023-03-12T11:39:05.429Z,97900.72
2023-03-12T11:42:11.634Z,97900.06
2023-03-12T11:45:51.692Z,97892.84
2023-03-12T11:49:03.565Z,97888.09
2023-03-12T11:52:14.901Z,97885.69
2023-03-12T11:55:40.835Z,97882.38
2023-03-12T11:59:15.950Z,97884.31
2023-03-12T12:03:07.163Z,97877.88
2023-03-12T12:06:39.198Z,97883.03
2023-03-12T12:09:50.752Z,97876.28
2023-03-12T12:13:08.607Z,97870.09
2023-03-12T12:16:20.526Z,97877.56
2023-03-12T12:19:27.746Z,97871.34
2023-03-12T12:22:39.484Z,97867.53
2023-03-12T12:26:08.651Z,97870.84
2023-03-12T12:29:17.476Z,97854.81
2023-03-12T12:32:43.482Z,97866.38
2023-03-12T12:35:46.550Z,97866.91
2023-03-12T12:38:57.141Z,97866.63
2023-03-12T12:42:03.436Z,97851.53
2023-03-12T12:45:07.254Z,97859.69
2023-03-12T12:48:12.595Z,97860.31
2023-03-12T12:51:17.145Z,97858.84
2023-03-12T12:54:22.859Z,97851.00
2023-03-12T12:57:46.388Z,97846.56
2023-03-12T13:00:59.491Z,97844.13
2023-03-12T13:04:25.885Z,97847.44
2023-03-12T13:07:31.921Z,97846.47
2023-03-12T13:10:34.740Z,97857.47
2023-03-12T13:13:37.465Z,97849.66
2023-03-12T13:16:47.530Z,97856.84
2023-03-12T13:20:00.694Z,97846.94
2023-03-12T13:23:36.852Z,97845.53
2023-03-12T13:26:54.861Z,97847.47
2023-03-12T13:29:58.320Z,97844.16
2023-03-12T13:33:03.728Z,97849.25
2023-03-12T13:36:17.707Z,97846.66
2023-03-12T13:39:30.728Z,97849.66
2023-03-12T13:42:40.580Z,97854.06
2023-03-12T13:46:01.857Z,97845.81
2023-03-12T13:49:11.697Z,97841.28
2023-03-12T13:52:14.955Z,97846.34
2023-03-12T13:55:23.022Z,97846.59
2023-03-12T13:58:27.893Z,97843.63
2023-03-12T14:01:36.622Z,97841.97
2023-03-12T14:04:42.694Z,97833.72
2023-03-12T14:08:11.636Z,97838.13
2023-03-12T14:11:42.138Z,97837.13
2023-03-12T14:14:54.454Z,97839.16
2023-03-12T14:18:13.007Z,97842.50
2023-03-12T14:21:17.101Z,97844.72
2023-03-12T14:24:30.461Z,97839.75
2023-03-12T14:27:34.498Z,97840.31
2023-03-12T14:30:45.388Z,97831.81
2023-03-12T14:34:09.499Z,97827.41
2023-03-12T14:37:16.616Z,97828.22
2023-03-12T14:40:30.481Z,97845.94
2023-03-12T14:43:35.375Z,97832.78
2023-03-12T14:46:47.013Z,97833.16
2023-03-12T14:49:49.843Z,97833.16
2023-03-12T14:52:53.920Z,97837.63
2023-03-12T14:56:06.051Z,97833.28
2023-03-12T14:59:39.286Z,97838.66
2023-03-12T15:02:43.547Z,97852.84
2023-03-12T15:05:48.086Z,97852.84
2023-03-12T15:08:50.850Z,97843.50
2023-03-12T15:11:56.500Z,97841.72
2023-03-12T15:15:08.412Z,97837.03
2023-03-12T15:18:18.459Z,97840.06
2023-03-12T15:21:21.809Z,97837.81
2023-03-12T15:24:25.004Z,97836.72
2023-03-12T15:27:29.024Z,97839.97
2023-03-12T15:30:32.459Z,97845.63
2023-03-12T15:33:35.373Z,97842.88
2023-03-12T15:36:48.392Z,97834.19
2023-03-12T15:39:53.010Z,97839.97
2023-03-12T15:42:59.784Z,97844.66
2023-03-12T15:46:04.257Z,97839.28
2023-03-12T15:49:36.532Z,97847.25
2023-03-12T15:52:39.256Z,97843.03
2023-03-12T15:55:42.514Z,97836.44
2023-03-12T15:58:47.001Z,97833.69
2023-03-12T16:01:53.266Z,97830.16
2023-03-12T16:04:56.132Z,97837.41
2023-03-12T16:08:26.665Z,97851.81
2023-03-12T16:11:31.270Z,97845.84
2023-03-12T16:14:36.471Z,97840.50
2023-03-12T16:17:39.264Z,97831.16
2023-03-12T16:20:42.510Z,97825.09
2023-03-12T16:23:45.266Z,97820.22
2023-03-12T16:26:58.647Z,97828.34
2023-03-12T16:30:01.864Z,97839.75
2023-03-12T16:33:09.062Z,97850.91
2023-03-12T16:36:17.860Z,97837.50
2023-03-12T16:39:20.899Z,97839.81
2023-03-12T16:42:23.666Z,97842.63
2023-03-12T16:45:28.089Z,97835.88
2023-03-12T16:48:30.840Z,97840.84
2023-03-12T16:51:33.972Z,97854.22
2023-03-12T16:54:37.123Z,97853.41
2023-03-12T16:57:44.492Z,97856.88
2023-03-12T17:00:47.573Z,97850.72
2023-03-12T17:03:50.588Z,97857.47
2023-03-12T17:06:53.557Z,97853.81
2023-03-12T17:09:56.471Z,97860.28
2023-03-12T17:12:59.734Z,97858.28
2023-03-12T17:16:02.447Z,97860.53
2023-03-12T17:19:05.260Z,97870.66
2023-03-12T17:22:08.018Z,97864.84
2023-03-12T17:25:24.204Z,97885.50
2023-03-12T17:28:27.162Z,97887.28
2023-03-12T17:31:29.905Z,97879.13
2023-03-12T17:34:32.706Z,97885.88
2023-03-12T17:37:35.684Z,97887.06
2023-03-12T17:40:43.426Z,97887.88
2023-03-12T17:43:46.355Z,97885.28
2023-03-12T17:46:58.881Z,97879.19
2023-03-12T17:50:03.362Z,97872.81
2023-03-12T17:53:06.346Z,97870.34
2023-03-12T17:56:09.447Z,97864.19
2023-03-12T17:59:12.311Z,97865.84
2023-03-12T18:02:15.047Z,97880.31
2023-03-12T18:05:18.034Z,97883.41
2023-03-12T18:08:20.821Z,97889.28
2023-03-12T18:11:23.734Z,97893.59
2023-03-12T18:14:26.885Z,97904.72
2023-03-12T18:17:29.887Z,97901.06
2023-03-12T18:20:39.099Z,97896.19
2023-03-12T18:23:44.044Z,97894.84
2023-03-12T18:26:50.068Z,97902.44
2023-03-12T18:29:53.109Z,97898.41
2023-03-12T18:32:55.953Z,97893.78
2023-03-12T18:35:58.937Z,97900.97
2023-03-12T18:39:04.930Z,97915.38
2023-03-12T18:42:08.156Z,97916.66
2023-03-12T18:45:12.281Z,97903.06
2023-03-12T18:48:15.252Z,97906.84
2023-03-12T18:51:18.301Z,97912.06
2023-03-12T18:54:23.578Z,97910.41
2023-03-12T18:57:28.161Z,97913.59
2023-03-12T19:00:32.212Z,97910.19
2023-03-12T19:03:36.893Z,97914.56
2023-03-12T19:06:50.288Z,97906.41
2023-03-12T19:09:55.000Z,97906.94
2023-03-12T19:12:59.156Z,97905.31
2023-03-12T19:16:05.824Z,97911.41
2023-03-12T19:19:10.538Z,97910.41
2023-03-12T19:22:13.821Z,97914.16
2023-03-12T19:25:17.628Z,97912.41
2023-03-12T19:28:22.085Z,97904.69
2023-03-12T19:31:26.066Z,97900.97
2023-03-12T19:34:29.529Z,97899.03
2023-03-12T19:37:33.004Z,97912.44
2023-03-12T19:40:38.299Z,97918.75
2023-03-12T19:43:43.102Z,97915.22
2023-03-12T19:46:46.647Z,97919.47
2023-03-12T19:49:50.445Z,97931.13
2023-03-12T19:52:54.546Z,97932.88
2023-03-12T19:55:58.349Z,97939.63
2023-03-12T19:59:02.248Z,97933.31
2023-03-12T20:02:06.779Z,97932.72
2023-03-12T20:05:12.554Z,97932.78
2023-03-12T20:08:19.773Z,97929.25
2023-03-12T20:11:22.970Z,97940.59
2023-03-12T20:14:26.330Z,97939.59
2023-03-12T20:17:30.438Z,97934.38
2023-03-12T20:20:33.815Z,97932.28
2023-03-12T20:23:37.601Z,97940.63
2023-03-12T20:26:42.152Z,97950.56
2023-03-12T20:29:47.198Z,97948.81
2023-03-12T20:32:52.601Z,97949.97
2023-03-12T20:35:57.193Z,97947.16
2023-03-12T20:39:01.451Z,97946.53
2023-03-12T20:42:05.098Z,97942.66
2023-03-12T20:45:09.577Z,97934.59
2023-03-12T20:48:13.243Z,97946.41
2023-03-12T20:51:16.731Z,97935.59
2023-03-12T20:54:19.679Z,97934.56
2023-03-12T20:57:23.306Z,97930.41
2023-03-12T21:00:28.974Z,97926.38
2023-03-12T21:03:33.003Z,97920.78
2023-03-12T21:06:36.362Z,97917.13
2023-03-12T21:09:39.028Z,97907.47
2023-03-12T21:12:42.330Z,97922.38
2023-03-12T21:15:45.539Z,97920.41
2023-03-12T21:18:48.451Z,97926.22
2023-03-12T21:21:51.239Z,97930.09
2023-03-12T21:24:54.358Z,97934.16
2023-03-12T21:27:57.338Z,97951.34
2023-03-12T21:31:12.106Z,97955.72
2023-03-12T21:34:15.015Z,97947.50
2023-03-12T21:37:17.759Z,97944.25
2023-03-12T21:40:20.579Z,97943.94
2023-03-12T21:43:23.288Z,97945.00
2023-03-12T21:46:30.342Z,97942.28
2023-03-12T21:49:36.908Z,97945.06
2023-03-12T21:52:43.076Z,97932.72
2023-03-12T21:55:55.188Z,97936.75
2023-03-12T21:58:58.276Z,97936.03
2023-03-12T22:02:01.128Z,97936.34
2023-03-12T22:05:03.962Z,97942.66
2023-03-12T22:08:06.521Z,97943.59
2023-03-12T22:11:09.933Z,97943.41
2023-03-12T22:14:12.619Z,97959.72
2023-03-12T22:17:15.535Z,97958.28
2023-03-12T22:20:18.491Z,97958.28
2023-03-12T22:23:22.125Z,97961.06
2023-03-12T22:26:26.951Z,97957.84
2023-03-12T22:29:29.531Z,97962.56
2023-03-12T22:32:32.596Z,97958.09
2023-03-12T22:35:35.480Z,97955.06
2023-03-12T22:38:39.053Z,97954.78
2023-03-12T22:41:41.659Z,97964.53
2023-03-12T22:44:44.203Z,97961.22
2023-03-12T22:47:46.815Z,97966.63
2023-03-12T22:50:55.865Z,97964.13
2023-03-12T22:53:58.592Z,97963.28
2023-03-12T22:57:01.259Z,97961.22
2023-03-12T23:00:12.792Z,97966.03
2023-03-12T23:03:15.408Z,97970.78
2023-03-12T23:06:25.892Z,97964.00
2023-03-12T23:09:28.789Z,97970.38
2023-03-12T23:12:31.630Z,97968.69
2023-03-12T23:15:40.897Z,97973.66
2023-03-12T23:18:44.866Z,97966.41
2023-03-12T23:21:47.482Z,97963.47
2023-03-12T23:24:50.190Z,97970.34
2023-03-12T23:27:52.709Z,97964.06
2023-03-12T23:31:00.474Z,97963.25
2023-03-12T23:34:03.148Z,97955.19
2023-03-12T23:37:06.373Z,97966.19
2023-03-12T23:40:11.325Z,97969.59
2023-03-12T23:43:13.996Z,97979.91
2023-03-12T23:46:19.850Z,97976.16
2023-03-12T23:49:22.501Z,97966.91
2023-03-12T23:52:28.382Z,97973.03
2023-03-12T23:55:31.020Z,97972.19
2023-03-12T23:58:33.895Z,97973.84
